sensor_id;sensor_type;location;lat;lon;timestamp;P1;durP1;ratioP1;P2;durP2;ratioP2
59271;SDS011;45043;51.068;7.026;2022-07-29T00:02:55;4.97;;;1.83;;
59271;SDS011;45043;51.068;7.026;2022-07-29T00:05:56;5.70;;;2.17;;
59271;SDS011;45043;51.068;7.026;2022-07-29T00:08:56;3.67;;;1.87;;
59271;SDS011;45043;51.068;7.026;2022-07-29T00:11:58;4.60;;;2.33;;
59271;SDS011;45043;51.068;7.026;2022-07-29T00:15:01;6.70;;;2.00;;
59271;SDS011;45043;51.068;7.026;2022-07-29T00:18:01;6.30;;;2.00;;
59271;SDS011;45043;51.068;7.026;2022-07-29T00:21:02;4.80;;;1.90;;
59271;SDS011;45043;51.068;7.026;2022-07-29T00:24:02;5.57;;;2.10;;
59271;SDS011;45043;51.068;7.026;2022-07-29T00:27:03;6.70;;;2.20;;
59271;SDS011;45043;51.068;7.026;2022-07-29T00:30:04;5.23;;;1.83;;
59271;SDS011;45043;51.068;7.026;2022-07-29T00:33:06;2.40;;;1.80;;
59271;SDS011;45043;51.068;7.026;2022-07-29T00:36:09;2.80;;;1.90;;
59271;SDS011;45043;51.068;7.026;2022-07-29T00:39:10;3.37;;;1.80;;
59271;SDS011;45043;51.068;7.026;2022-07-29T00:42:10;4.67;;;2.00;;
59271;SDS011;45043;51.068;7.026;2022-07-29T00:45:11;5.00;;;2.20;;
59271;SDS011;45043;51.068;7.026;2022-07-29T00:48:12;3.83;;;1.90;;
59271;SDS011;45043;51.068;7.026;2022-07-29T00:51:13;4.37;;;1.93;;
59271;SDS011;45043;51.068;7.026;2022-07-29T00:54:14;5.40;;;1.77;;
59271;SDS011;45043;51.068;7.026;2022-07-29T00:57:14;3.50;;;1.70;;
59271;SDS011;45043;51.068;7.026;2022-07-29T01:00:17;4.33;;;1.93;;
59271;SDS011;45043;51.068;7.026;2022-07-29T01:03:19;5.53;;;2.10;;
59271;SDS011;45043;51.068;7.026;2022-07-29T01:06:19;4.23;;;2.20;;
59271;SDS011;45043;51.068;7.026;2022-07-29T01:09:20;9.20;;;2.00;;
59271;SDS011;45043;51.068;7.026;2022-07-29T01:12:23;6.73;;;2.00;;
59271;SDS011;45043;51.068;7.026;2022-07-29T01:15:25;9.37;;;2.20;;
59271;SDS011;45043;51.068;7.026;2022-07-29T01:18:37;5.03;;;2.00;;
59271;SDS011;45043;51.068;7.026;2022-07-29T01:38:17;6.83;;;2.47;;
59271;SDS011;45043;51.068;7.026;2022-07-29T01:41:22;4.93;;;2.07;;
59271;SDS011;45043;51.068;7.026;2022-07-29T01:44:27;7.37;;;2.27;;
59271;SDS011;45043;51.068;7.026;2022-07-29T01:47:34;3.50;;;1.83;;
59271;SDS011;45043;51.068;7.026;2022-07-29T01:50:44;6.47;;;2.10;;
59271;SDS011;45043;51.068;7.026;2022-07-29T01:53:50;5.10;;;1.90;;
59271;SDS011;45043;51.068;7.026;2022-07-29T01:56:58;6.57;;;2.37;;
59271;SDS011;45043;51.068;7.026;2022-07-29T01:59:59;5.17;;;2.00;;
59271;SDS011;45043;51.068;7.026;2022-07-29T02:03:02;4.30;;;1.73;;
59271;SDS011;45043;51.068;7.026;2022-07-29T02:06:07;5.57;;;1.97;;
59271;SDS011;45043;51.068;7.026;2022-07-29T02:09:10;4.27;;;1.90;;
59271;SDS011;45043;51.068;7.026;2022-07-29T02:12:14;3.33;;;2.07;;
59271;SDS011;45043;51.068;7.026;2022-07-29T02:15:17;4.73;;;1.87;;
59271;SDS011;45043;51.068;7.026;2022-07-29T02:18:19;5.77;;;2.10;;
59271;SDS011;45043;51.068;7.026;2022-07-29T02:21:23;8.43;;;2.30;;
59271;SDS011;45043;51.068;7.026;2022-07-29T02:24:24;4.43;;;2.33;;
59271;SDS011;45043;51.068;7.026;2022-07-29T02:27:26;6.07;;;2.27;;
59271;SDS011;45043;51.068;7.026;2022-07-29T02:30:28;5.37;;;2.03;;
59271;SDS011;45043;51.068;7.026;2022-07-29T02:33:31;5.53;;;2.70;;
59271;SDS011;45043;51.068;7.026;2022-07-29T02:36:33;4.47;;;2.67;;
59271;SDS011;45043;51.068;7.026;2022-07-29T02:39:35;5.50;;;2.90;;
59271;SDS011;45043;51.068;7.026;2022-07-29T02:42:37;5.37;;;4.57;;
59271;SDS011;45043;51.068;7.026;2022-07-29T02:45:41;5.47;;;3.60;;
59271;SDS011;45043;51.068;7.026;2022-07-29T02:48:51;5.93;;;2.43;;
59271;SDS011;45043;51.068;7.026;2022-07-29T02:51:59;4.57;;;2.17;;
59271;SDS011;45043;51.068;7.026;2022-07-29T02:55:06;3.60;;;2.10;;
59271;SDS011;45043;51.068;7.026;2022-07-29T03:01:16;6.17;;;2.27;;
59271;SDS011;45043;51.068;7.026;2022-07-29T03:04:21;3.47;;;2.20;;
59271;SDS011;45043;51.068;7.026;2022-07-29T03:07:24;7.20;;;2.10;;
59271;SDS011;45043;51.068;7.026;2022-07-29T03:10:25;3.67;;;1.90;;
59271;SDS011;45043;51.068;7.026;2022-07-29T03:13:27;5.07;;;2.10;;
59271;SDS011;45043;51.068;7.026;2022-07-29T03:16:29;4.00;;;2.03;;
59271;SDS011;45043;51.068;7.026;2022-07-29T03:19:30;5.67;;;2.30;;
59271;SDS011;45043;51.068;7.026;2022-07-29T03:22:32;3.97;;;2.20;;
59271;SDS011;45043;51.068;7.026;2022-07-29T03:25:33;4.63;;;2.17;;
59271;SDS011;45043;51.068;7.026;2022-07-29T03:28:33;4.57;;;2.30;;
59271;SDS011;45043;51.068;7.026;2022-07-29T03:31:34;4.57;;;2.30;;
59271;SDS011;45043;51.068;7.026;2022-07-29T03:34:35;4.03;;;2.30;;
59271;SDS011;45043;51.068;7.026;2022-07-29T03:37:37;5.27;;;2.57;;
59271;SDS011;45043;51.068;7.026;2022-07-29T03:40:38;5.20;;;2.40;;
59271;SDS011;45043;51.068;7.026;2022-07-29T03:44:01;4.37;;;2.23;;
59271;SDS011;45043;51.068;7.026;2022-07-29T03:47:03;6.20;;;2.60;;
59271;SDS011;45043;51.068;7.026;2022-07-29T03:50:07;8.37;;;2.33;;
59271;SDS011;45043;51.068;7.026;2022-07-29T03:53:10;5.40;;;2.70;;
59271;SDS011;45043;51.068;7.026;2022-07-29T03:56:11;4.13;;;2.70;;
59271;SDS011;45043;51.068;7.026;2022-07-29T03:59:16;6.20;;;2.80;;
59271;SDS011;45043;51.068;7.026;2022-07-29T04:02:19;3.43;;;2.50;;
59271;SDS011;45043;51.068;7.026;2022-07-29T04:05:21;5.60;;;2.60;;
59271;SDS011;45043;51.068;7.026;2022-07-29T04:08:21;5.07;;;2.77;;
59271;SDS011;45043;51.068;7.026;2022-07-29T04:11:21;5.03;;;2.83;;
59271;SDS011;45043;51.068;7.026;2022-07-29T04:14:22;7.00;;;3.27;;
59271;SDS011;45043;51.068;7.026;2022-07-29T04:17:22;7.60;;;2.53;;
59271;SDS011;45043;51.068;7.026;2022-07-29T04:20:23;6.77;;;2.50;;
59271;SDS011;45043;51.068;7.026;2022-07-29T04:23:23;6.87;;;2.37;;
59271;SDS011;45043;51.068;7.026;2022-07-29T04:26:24;3.33;;;2.50;;
59271;SDS011;45043;51.068;7.026;2022-07-29T04:29:24;7.97;;;2.40;;
59271;SDS011;45043;51.068;7.026;2022-07-29T04:32:25;6.40;;;2.47;;
59271;SDS011;45043;51.068;7.026;2022-07-29T04:35:25;6.47;;;2.67;;
59271;SDS011;45043;51.068;7.026;2022-07-29T04:38:26;5.43;;;2.70;;
59271;SDS011;45043;51.068;7.026;2022-07-29T04:41:27;7.47;;;2.83;;
59271;SDS011;45043;51.068;7.026;2022-07-29T04:44:28;6.03;;;2.77;;
59271;SDS011;45043;51.068;7.026;2022-07-29T04:47:28;7.63;;;2.70;;
59271;SDS011;45043;51.068;7.026;2022-07-29T04:50:29;4.70;;;2.37;;
59271;SDS011;45043;51.068;7.026;2022-07-29T04:53:30;4.67;;;2.17;;
59271;SDS011;45043;51.068;7.026;2022-07-29T04:56:30;7.70;;;2.60;;
59271;SDS011;45043;51.068;7.026;2022-07-29T04:59:31;5.90;;;2.07;;
59271;SDS011;45043;51.068;7.026;2022-07-29T05:02:31;3.93;;;2.30;;
59271;SDS011;45043;51.068;7.026;2022-07-29T05:05:32;7.13;;;2.23;;
59271;SDS011;45043;51.068;7.026;2022-07-29T05:08:32;5.87;;;2.63;;
59271;SDS011;45043;51.068;7.026;2022-07-29T05:11:33;9.47;;;2.80;;
59271;SDS011;45043;51.068;7.026;2022-07-29T05:14:33;6.97;;;2.60;;
59271;SDS011;45043;51.068;7.026;2022-07-29T05:17:34;7.97;;;2.60;;
59271;SDS011;45043;51.068;7.026;2022-07-29T05:20:34;6.83;;;3.03;;
59271;SDS011;45043;51.068;7.026;2022-07-29T05:23:35;5.07;;;2.43;;
59271;SDS011;45043;51.068;7.026;2022-07-29T05:26:35;6.07;;;2.80;;
59271;SDS011;45043;51.068;7.026;2022-07-29T05:29:36;5.53;;;2.13;;
59271;SDS011;45043;51.068;7.026;2022-07-29T05:32:39;7.13;;;2.40;;
59271;SDS011;45043;51.068;7.026;2022-07-29T05:35:42;5.63;;;2.17;;
59271;SDS011;45043;51.068;7.026;2022-07-29T05:38:43;5.93;;;2.40;;
59271;SDS011;45043;51.068;7.026;2022-07-29T05:41:43;9.70;;;2.53;;
59271;SDS011;45043;51.068;7.026;2022-07-29T05:44:44;2.77;;;2.37;;
59271;SDS011;45043;51.068;7.026;2022-07-29T05:47:44;6.70;;;2.50;;
59271;SDS011;45043;51.068;7.026;2022-07-29T05:50:48;5.73;;;2.43;;
59271;SDS011;45043;51.068;7.026;2022-07-29T05:53:49;10.97;;;7.90;;
59271;SDS011;45043;51.068;7.026;2022-07-29T05:56:50;6.77;;;2.00;;
59271;SDS011;45043;51.068;7.026;2022-07-29T06:04:26;3.57;;;2.50;;
59271;SDS011;45043;51.068;7.026;2022-07-29T06:08:44;10.37;;;3.10;;
59271;SDS011;45043;51.068;7.026;2022-07-29T06:11:48;6.43;;;2.80;;
59271;SDS011;45043;51.068;7.026;2022-07-29T06:14:51;5.63;;;2.80;;
59271;SDS011;45043;51.068;7.026;2022-07-29T06:17:54;4.37;;;2.10;;
59271;SDS011;45043;51.068;7.026;2022-07-29T06:20:54;6.07;;;3.00;;
59271;SDS011;45043;51.068;7.026;2022-07-29T06:23:55;14.40;;;3.17;;
59271;SDS011;45043;51.068;7.026;2022-07-29T06:26:57;4.73;;;2.53;;
59271;SDS011;45043;51.068;7.026;2022-07-29T06:29:58;6.17;;;2.60;;
59271;SDS011;45043;51.068;7.026;2022-07-29T06:32:59;4.83;;;2.47;;
59271;SDS011;45043;51.068;7.026;2022-07-29T06:36:03;4.50;;;2.27;;
59271;SDS011;45043;51.068;7.026;2022-07-29T06:39:05;4.57;;;2.10;;
59271;SDS011;45043;51.068;7.026;2022-07-29T06:42:06;3.90;;;2.30;;
59271;SDS011;45043;51.068;7.026;2022-07-29T06:45:15;5.93;;;2.17;;
59271;SDS011;45043;51.068;7.026;2022-07-29T06:48:19;6.40;;;2.50;;
59271;SDS011;45043;51.068;7.026;2022-07-29T06:51:20;3.63;;;2.27;;
59271;SDS011;45043;51.068;7.026;2022-07-29T06:54:21;10.30;;;3.20;;
59271;SDS011;45043;51.068;7.026;2022-07-29T06:57:24;8.70;;;2.97;;
59271;SDS011;45043;51.068;7.026;2022-07-29T07:00:27;7.30;;;2.70;;
59271;SDS011;45043;51.068;7.026;2022-07-29T07:03:37;3.53;;;2.30;;
59271;SDS011;45043;51.068;7.026;2022-07-29T07:06:37;6.93;;;2.40;;
59271;SDS011;45043;51.068;7.026;2022-07-29T07:09:38;4.37;;;2.30;;
59271;SDS011;45043;51.068;7.026;2022-07-29T07:12:38;8.10;;;2.87;;
59271;SDS011;45043;51.068;7.026;2022-07-29T07:15:48;6.23;;;2.53;;
59271;SDS011;45043;51.068;7.026;2022-07-29T07:18:48;7.20;;;2.50;;
59271;SDS011;45043;51.068;7.026;2022-07-29T07:21:49;4.40;;;2.20;;
59271;SDS011;45043;51.068;7.026;2022-07-29T07:24:49;6.73;;;2.60;;
59271;SDS011;45043;51.068;7.026;2022-07-29T07:27:50;5.47;;;2.50;;
59271;SDS011;45043;51.068;7.026;2022-07-29T07:30:51;4.30;;;2.37;;
59271;SDS011;45043;51.068;7.026;2022-07-29T07:33:51;5.60;;;2.07;;
59271;SDS011;45043;51.068;7.026;2022-07-29T07:36:57;8.23;;;2.20;;
59271;SDS011;45043;51.068;7.026;2022-07-29T07:40:01;6.73;;;2.33;;
59271;SDS011;45043;51.068;7.026;2022-07-29T07:43:02;5.80;;;2.43;;
59271;SDS011;45043;51.068;7.026;2022-07-29T07:46:03;10.83;;;4.40;;
59271;SDS011;45043;51.068;7.026;2022-07-29T07:49:07;8.73;;;2.97;;
59271;SDS011;45043;51.068;7.026;2022-07-29T07:52:07;4.90;;;2.27;;
59271;SDS011;45043;51.068;7.026;2022-07-29T07:55:08;5.17;;;2.57;;
59271;SDS011;45043;51.068;7.026;2022-07-29T07:58:09;10.27;;;2.97;;
59271;SDS011;45043;51.068;7.026;2022-07-29T08:01:13;8.13;;;2.73;;
59271;SDS011;45043;51.068;7.026;2022-07-29T08:04:13;6.57;;;2.67;;
59271;SDS011;45043;51.068;7.026;2022-07-29T08:07:17;6.63;;;2.83;;
59271;SDS011;45043;51.068;7.026;2022-07-29T08:10:17;4.73;;;2.50;;
59271;SDS011;45043;51.068;7.026;2022-07-29T08:13:38;5.40;;;2.70;;
59271;SDS011;45043;51.068;7.026;2022-07-29T08:16:41;5.03;;;2.40;;
59271;SDS011;45043;51.068;7.026;2022-07-29T08:19:50;5.50;;;2.50;;
59271;SDS011;45043;51.068;7.026;2022-07-29T08:22:52;6.67;;;2.73;;
59271;SDS011;45043;51.068;7.026;2022-07-29T08:25:55;6.03;;;2.70;;
59271;SDS011;45043;51.068;7.026;2022-07-29T08:28:56;6.43;;;3.13;;
59271;SDS011;45043;51.068;7.026;2022-07-29T08:31:56;8.00;;;3.17;;
59271;SDS011;45043;51.068;7.026;2022-07-29T08:34:57;8.40;;;2.70;;
59271;SDS011;45043;51.068;7.026;2022-07-29T08:37:57;6.40;;;3.00;;
59271;SDS011;45043;51.068;7.026;2022-07-29T08:40:59;7.50;;;3.10;;
59271;SDS011;45043;51.068;7.026;2022-07-29T08:44:00;5.40;;;2.90;;
59271;SDS011;45043;51.068;7.026;2022-07-29T08:47:01;7.90;;;3.47;;
59271;SDS011;45043;51.068;7.026;2022-07-29T08:50:02;5.80;;;3.23;;
59271;SDS011;45043;51.068;7.026;2022-07-29T08:53:03;5.40;;;3.20;;
59271;SDS011;45043;51.068;7.026;2022-07-29T08:56:05;6.13;;;3.57;;
59271;SDS011;45043;51.068;7.026;2022-07-29T08:59:06;7.33;;;3.37;;
59271;SDS011;45043;51.068;7.026;2022-07-29T09:02:19;5.70;;;3.47;;
59271;SDS011;45043;51.068;7.026;2022-07-29T09:05:22;7.40;;;3.60;;
59271;SDS011;45043;51.068;7.026;2022-07-29T09:08:24;9.40;;;3.67;;
59271;SDS011;45043;51.068;7.026;2022-07-29T09:11:26;8.00;;;3.10;;
59271;SDS011;45043;51.068;7.026;2022-07-29T09:14:27;5.70;;;3.20;;
59271;SDS011;45043;51.068;7.026;2022-07-29T09:17:43;5.57;;;2.97;;
59271;SDS011;45043;51.068;7.026;2022-07-29T09:20:50;6.70;;;3.60;;
59271;SDS011;45043;51.068;7.026;2022-07-29T09:24:11;9.07;;;3.40;;
59271;SDS011;45043;51.068;7.026;2022-07-29T09:30:17;7.70;;;3.83;;
59271;SDS011;45043;51.068;7.026;2022-07-29T09:33:17;8.87;;;3.40;;
59271;SDS011;45043;51.068;7.026;2022-07-29T09:36:18;11.33;;;3.40;;
59271;SDS011;45043;51.068;7.026;2022-07-29T09:42:29;7.37;;;3.57;;
59271;SDS011;45043;51.068;7.026;2022-07-29T09:45:31;8.53;;;3.80;;
59271;SDS011;45043;51.068;7.026;2022-07-29T09:48:33;7.40;;;3.80;;
59271;SDS011;45043;51.068;7.026;2022-07-29T09:51:33;8.43;;;3.93;;
59271;SDS011;45043;51.068;7.026;2022-07-29T09:54:34;5.83;;;3.57;;
59271;SDS011;45043;51.068;7.026;2022-07-29T09:57:38;5.07;;;3.20;;
59271;SDS011;45043;51.068;7.026;2022-07-29T10:00:41;8.63;;;3.97;;
59271;SDS011;45043;51.068;7.026;2022-07-29T10:03:52;9.50;;;3.90;;
59271;SDS011;45043;51.068;7.026;2022-07-29T10:06:59;8.33;;;3.70;;
59271;SDS011;45043;51.068;7.026;2022-07-29T10:10:00;4.77;;;3.13;;
59271;SDS011;45043;51.068;7.026;2022-07-29T10:13:03;6.87;;;3.40;;
59271;SDS011;45043;51.068;7.026;2022-07-29T10:16:07;6.77;;;3.80;;
59271;SDS011;45043;51.068;7.026;2022-07-29T10:19:08;10.27;;;3.80;;
59271;SDS011;45043;51.068;7.026;2022-07-29T10:22:10;9.87;;;3.90;;
59271;SDS011;45043;51.068;7.026;2022-07-29T10:25:14;9.33;;;4.13;;
59271;SDS011;45043;51.068;7.026;2022-07-29T10:28:16;7.80;;;3.57;;
59271;SDS011;45043;51.068;7.026;2022-07-29T10:31:22;10.10;;;3.70;;
59271;SDS011;45043;51.068;7.026;2022-07-29T10:44:45;11.83;;;4.20;;
59271;SDS011;45043;51.068;7.026;2022-07-29T10:47:46;7.97;;;4.20;;
59271;SDS011;45043;51.068;7.026;2022-07-29T10:54:00;5.87;;;4.50;;
59271;SDS011;45043;51.068;7.026;2022-07-29T11:00:28;7.93;;;4.53;;
59271;SDS011;45043;51.068;7.026;2022-07-29T11:17:05;5.73;;;4.20;;
59271;SDS011;45043;51.068;7.026;2022-07-29T11:23:32;11.27;;;4.83;;
59271;SDS011;45043;51.068;7.026;2022-07-29T11:26:38;8.60;;;4.50;;
59271;SDS011;45043;51.068;7.026;2022-07-29T11:29:40;7.67;;;4.50;;
59271;SDS011;45043;51.068;7.026;2022-07-29T11:32:51;6.83;;;4.20;;
59271;SDS011;45043;51.068;7.026;2022-07-29T11:36:11;5.80;;;3.70;;
59271;SDS011;45043;51.068;7.026;2022-07-29T11:39:25;7.37;;;3.90;;
59271;SDS011;45043;51.068;7.026;2022-07-29T11:45:26;5.87;;;4.17;;
59271;SDS011;45043;51.068;7.026;2022-07-29T11:48:46;7.00;;;3.70;;
59271;SDS011;45043;51.068;7.026;2022-07-29T11:51:53;7.27;;;3.27;;
59271;SDS011;45043;51.068;7.026;2022-07-29T11:54:56;6.27;;;3.60;;
59271;SDS011;45043;51.068;7.026;2022-07-29T11:57:58;5.87;;;3.23;;
59271;SDS011;45043;51.068;7.026;2022-07-29T12:01:00;16.30;;;3.97;;
59271;SDS011;45043;51.068;7.026;2022-07-29T12:04:04;9.87;;;3.50;;
59271;SDS011;45043;51.068;7.026;2022-07-29T12:07:06;4.70;;;3.23;;
59271;SDS011;45043;51.068;7.026;2022-07-29T12:10:07;9.83;;;3.37;;
59271;SDS011;45043;51.068;7.026;2022-07-29T12:13:08;5.53;;;3.47;;
59271;SDS011;45043;51.068;7.026;2022-07-29T12:16:09;4.90;;;2.97;;
59271;SDS011;45043;51.068;7.026;2022-07-29T12:19:09;7.60;;;2.67;;
59271;SDS011;45043;51.068;7.026;2022-07-29T12:22:10;8.60;;;3.43;;
59271;SDS011;45043;51.068;7.026;2022-07-29T12:25:12;7.93;;;3.30;;
59271;SDS011;45043;51.068;7.026;2022-07-29T12:28:18;12.07;;;4.10;;
59271;SDS011;45043;51.068;7.026;2022-07-29T12:31:19;5.47;;;3.33;;
59271;SDS011;45043;51.068;7.026;2022-07-29T12:34:20;4.37;;;2.80;;
59271;SDS011;45043;51.068;7.026;2022-07-29T12:37:24;7.00;;;3.33;;
59271;SDS011;45043;51.068;7.026;2022-07-29T12:40:24;7.70;;;3.27;;
59271;SDS011;45043;51.068;7.026;2022-07-29T12:43:25;5.23;;;3.00;;
59271;SDS011;45043;51.068;7.026;2022-07-29T12:46:26;8.47;;;3.37;;
59271;SDS011;45043;51.068;7.026;2022-07-29T12:49:27;7.43;;;2.93;;
59271;SDS011;45043;51.068;7.026;2022-07-29T12:52:31;7.73;;;3.47;;
59271;SDS011;45043;51.068;7.026;2022-07-29T12:55:40;4.40;;;3.13;;
59271;SDS011;45043;51.068;7.026;2022-07-29T12:58:48;4.23;;;2.97;;
59271;SDS011;45043;51.068;7.026;2022-07-29T13:01:50;10.47;;;3.20;;
59271;SDS011;45043;51.068;7.026;2022-07-29T13:04:58;4.97;;;3.40;;
59271;SDS011;45043;51.068;7.026;2022-07-29T13:08:09;5.30;;;2.80;;
59271;SDS011;45043;51.068;7.026;2022-07-29T13:11:26;5.10;;;3.30;;
59271;SDS011;45043;51.068;7.026;2022-07-29T13:14:34;8.13;;;2.90;;
59271;SDS011;45043;51.068;7.026;2022-07-29T13:17:43;5.27;;;3.10;;
59271;SDS011;45043;51.068;7.026;2022-07-29T13:20:44;5.47;;;2.97;;
59271;SDS011;45043;51.068;7.026;2022-07-29T13:23:44;6.80;;;2.93;;
59271;SDS011;45043;51.068;7.026;2022-07-29T13:26:45;4.87;;;3.07;;
59271;SDS011;45043;51.068;7.026;2022-07-29T13:29:45;5.87;;;3.20;;
59271;SDS011;45043;51.068;7.026;2022-07-29T13:32:46;6.10;;;2.70;;
59271;SDS011;45043;51.068;7.026;2022-07-29T13:35:47;8.47;;;3.17;;
59271;SDS011;45043;51.068;7.026;2022-07-29T13:38:47;9.73;;;3.37;;
59271;SDS011;45043;51.068;7.026;2022-07-29T13:41:48;5.77;;;3.17;;
59271;SDS011;45043;51.068;7.026;2022-07-29T13:44:49;5.13;;;3.10;;
59271;SDS011;45043;51.068;7.026;2022-07-29T13:47:51;6.00;;;2.70;;
59271;SDS011;45043;51.068;7.026;2022-07-29T13:50:52;4.30;;;2.73;;
59271;SDS011;45043;51.068;7.026;2022-07-29T13:53:52;10.17;;;3.40;;
59271;SDS011;45043;51.068;7.026;2022-07-29T13:56:52;5.27;;;2.83;;
59271;SDS011;45043;51.068;7.026;2022-07-29T13:59:53;7.93;;;3.17;;
59271;SDS011;45043;51.068;7.026;2022-07-29T14:02:54;8.13;;;3.37;;
59271;SDS011;45043;51.068;7.026;2022-07-29T14:05:54;8.53;;;3.03;;
59271;SDS011;45043;51.068;7.026;2022-07-29T14:08:56;7.57;;;3.20;;
59271;SDS011;45043;51.068;7.026;2022-07-29T14:11:57;7.77;;;3.87;;
59271;SDS011;45043;51.068;7.026;2022-07-29T14:14:57;5.17;;;3.43;;
59271;SDS011;45043;51.068;7.026;2022-07-29T14:17:57;5.70;;;3.40;;
59271;SDS011;45043;51.068;7.026;2022-07-29T14:20:58;6.60;;;3.37;;
59271;SDS011;45043;51.068;7.026;2022-07-29T14:23:58;4.90;;;3.60;;
59271;SDS011;45043;51.068;7.026;2022-07-29T14:26:59;4.87;;;3.30;;
59271;SDS011;45043;51.068;7.026;2022-07-29T14:29:59;5.70;;;3.13;;
59271;SDS011;45043;51.068;7.026;2022-07-29T14:33:00;6.77;;;3.40;;
59271;SDS011;45043;51.068;7.026;2022-07-29T14:36:00;6.90;;;3.40;;
59271;SDS011;45043;51.068;7.026;2022-07-29T14:39:01;6.50;;;3.40;;
59271;SDS011;45043;51.068;7.026;2022-07-29T14:42:01;5.43;;;3.27;;
59271;SDS011;45043;51.068;7.026;2022-07-29T14:45:02;7.57;;;3.43;;
59271;SDS011;45043;51.068;7.026;2022-07-29T14:48:05;6.93;;;2.90;;
59271;SDS011;45043;51.068;7.026;2022-07-29T14:51:06;6.83;;;3.07;;
59271;SDS011;45043;51.068;7.026;2022-07-29T14:54:06;4.20;;;3.00;;
59271;SDS011;45043;51.068;7.026;2022-07-29T14:57:07;8.53;;;3.50;;
59271;SDS011;45043;51.068;7.026;2022-07-29T15:00:08;4.93;;;3.00;;
59271;SDS011;45043;51.068;7.026;2022-07-29T15:03:11;8.43;;;3.20;;
59271;SDS011;45043;51.068;7.026;2022-07-29T15:06:12;5.63;;;3.60;;
59271;SDS011;45043;51.068;7.026;2022-07-29T15:09:13;8.87;;;3.60;;
59271;SDS011;45043;51.068;7.026;2022-07-29T15:12:13;6.03;;;3.80;;
59271;SDS011;45043;51.068;7.026;2022-07-29T15:15:14;8.57;;;3.40;;
59271;SDS011;45043;51.068;7.026;2022-07-29T15:18:14;4.00;;;3.40;;
59271;SDS011;45043;51.068;7.026;2022-07-29T15:21:15;5.87;;;3.57;;
59271;SDS011;45043;51.068;7.026;2022-07-29T15:24:16;8.00;;;3.50;;
59271;SDS011;45043;51.068;7.026;2022-07-29T15:27:17;5.10;;;3.17;;
59271;SDS011;45043;51.068;7.026;2022-07-29T15:30:19;6.23;;;3.20;;
59271;SDS011;45043;51.068;7.026;2022-07-29T15:33:19;4.77;;;3.17;;
59271;SDS011;45043;51.068;7.026;2022-07-29T15:36:20;9.17;;;3.30;;
59271;SDS011;45043;51.068;7.026;2022-07-29T15:39:21;7.60;;;2.97;;
59271;SDS011;45043;51.068;7.026;2022-07-29T15:42:22;6.27;;;3.10;;
59271;SDS011;45043;51.068;7.026;2022-07-29T15:45:22;4.93;;;3.07;;
59271;SDS011;45043;51.068;7.026;2022-07-29T15:48:23;5.83;;;3.33;;
59271;SDS011;45043;51.068;7.026;2022-07-29T15:51:23;4.33;;;3.17;;
59271;SDS011;45043;51.068;7.026;2022-07-29T15:54:24;6.67;;;3.30;;
59271;SDS011;45043;51.068;7.026;2022-07-29T15:57:24;6.17;;;3.00;;
59271;SDS011;45043;51.068;7.026;2022-07-29T16:00:25;7.33;;;3.27;;
59271;SDS011;45043;51.068;7.026;2022-07-29T16:03:25;6.00;;;3.53;;
59271;SDS011;45043;51.068;7.026;2022-07-29T16:06:26;6.50;;;3.20;;
59271;SDS011;45043;51.068;7.026;2022-07-29T16:09:26;6.73;;;3.10;;
59271;SDS011;45043;51.068;7.026;2022-07-29T16:12:27;8.17;;;3.17;;
59271;SDS011;45043;51.068;7.026;2022-07-29T16:15:28;5.93;;;3.10;;
59271;SDS011;45043;51.068;7.026;2022-07-29T16:18:28;4.47;;;2.97;;
59271;SDS011;45043;51.068;7.026;2022-07-29T16:21:29;5.87;;;3.10;;
59271;SDS011;45043;51.068;7.026;2022-07-29T16:24:34;6.67;;;3.17;;
59271;SDS011;45043;51.068;7.026;2022-07-29T16:27:34;7.87;;;3.30;;
59271;SDS011;45043;51.068;7.026;2022-07-29T16:30:35;7.67;;;3.20;;
59271;SDS011;45043;51.068;7.026;2022-07-29T16:33:36;6.90;;;3.30;;
59271;SDS011;45043;51.068;7.026;2022-07-29T16:36:36;5.47;;;3.10;;
59271;SDS011;45043;51.068;7.026;2022-07-29T16:39:36;5.77;;;3.27;;
59271;SDS011;45043;51.068;7.026;2022-07-29T16:42:37;7.80;;;3.60;;
59271;SDS011;45043;51.068;7.026;2022-07-29T16:45:38;8.93;;;3.97;;
59271;SDS011;45043;51.068;7.026;2022-07-29T16:48:38;6.17;;;3.23;;
59271;SDS011;45043;51.068;7.026;2022-07-29T16:51:38;4.67;;;3.10;;
59271;SDS011;45043;51.068;7.026;2022-07-29T16:54:39;6.17;;;3.37;;
59271;SDS011;45043;51.068;7.026;2022-07-29T16:57:40;5.23;;;3.30;;
59271;SDS011;45043;51.068;7.026;2022-07-29T17:00:41;5.80;;;3.40;;
59271;SDS011;45043;51.068;7.026;2022-07-29T17:03:42;8.03;;;3.60;;
59271;SDS011;45043;51.068;7.026;2022-07-29T17:07:01;5.67;;;3.10;;
59271;SDS011;45043;51.068;7.026;2022-07-29T17:10:01;7.23;;;3.40;;
59271;SDS011;45043;51.068;7.026;2022-07-29T17:13:04;8.20;;;3.60;;
59271;SDS011;45043;51.068;7.026;2022-07-29T17:16:04;4.80;;;3.13;;
59271;SDS011;45043;51.068;7.026;2022-07-29T17:19:05;6.67;;;3.27;;
59271;SDS011;45043;51.068;7.026;2022-07-29T17:22:05;5.93;;;3.43;;
59271;SDS011;45043;51.068;7.026;2022-07-29T17:25:06;6.20;;;2.93;;
59271;SDS011;45043;51.068;7.026;2022-07-29T17:28:13;8.00;;;3.00;;
59271;SDS011;45043;51.068;7.026;2022-07-29T17:31:14;5.20;;;3.03;;
59271;SDS011;45043;51.068;7.026;2022-07-29T17:34:15;4.13;;;3.00;;
59271;SDS011;45043;51.068;7.026;2022-07-29T17:37:15;8.80;;;2.80;;
59271;SDS011;45043;51.068;7.026;2022-07-29T17:40:16;5.63;;;3.63;;
59271;SDS011;45043;51.068;7.026;2022-07-29T17:43:16;4.23;;;2.63;;
59271;SDS011;45043;51.068;7.026;2022-07-29T17:46:17;7.83;;;3.33;;
59271;SDS011;45043;51.068;7.026;2022-07-29T17:49:21;7.57;;;3.50;;
59271;SDS011;45043;51.068;7.026;2022-07-29T17:52:21;5.93;;;3.03;;
59271;SDS011;45043;51.068;7.026;2022-07-29T17:55:22;7.67;;;3.03;;
59271;SDS011;45043;51.068;7.026;2022-07-29T17:58:22;5.37;;;3.03;;
59271;SDS011;45043;51.068;7.026;2022-07-29T18:01:23;7.00;;;3.07;;
59271;SDS011;45043;51.068;7.026;2022-07-29T18:04:23;5.87;;;3.20;;
59271;SDS011;45043;51.068;7.026;2022-07-29T18:07:24;4.87;;;2.93;;
59271;SDS011;45043;51.068;7.026;2022-07-29T18:10:24;5.77;;;2.87;;
59271;SDS011;45043;51.068;7.026;2022-07-29T18:13:25;5.73;;;3.27;;
59271;SDS011;45043;51.068;7.026;2022-07-29T18:16:25;4.80;;;3.17;;
59271;SDS011;45043;51.068;7.026;2022-07-29T18:19:26;5.90;;;3.20;;
59271;SDS011;45043;51.068;7.026;2022-07-29T18:22:28;6.57;;;3.20;;
59271;SDS011;45043;51.068;7.026;2022-07-29T18:25:29;6.83;;;3.40;;
59271;SDS011;45043;51.068;7.026;2022-07-29T18:28:29;3.80;;;2.67;;
59271;SDS011;45043;51.068;7.026;2022-07-29T18:31:31;6.00;;;2.97;;
59271;SDS011;45043;51.068;7.026;2022-07-29T18:34:32;4.73;;;2.87;;
59271;SDS011;45043;51.068;7.026;2022-07-29T18:37:32;4.60;;;3.00;;
59271;SDS011;45043;51.068;7.026;2022-07-29T18:40:34;7.80;;;3.10;;
59271;SDS011;45043;51.068;7.026;2022-07-29T18:43:34;7.47;;;3.30;;
59271;SDS011;45043;51.068;7.026;2022-07-29T18:46:35;7.07;;;2.80;;
59271;SDS011;45043;51.068;7.026;2022-07-29T18:49:35;6.27;;;2.97;;
59271;SDS011;45043;51.068;7.026;2022-07-29T18:52:36;5.53;;;3.00;;
59271;SDS011;45043;51.068;7.026;2022-07-29T18:55:36;7.13;;;2.90;;
59271;SDS011;45043;51.068;7.026;2022-07-29T18:58:37;7.27;;;2.90;;
59271;SDS011;45043;51.068;7.026;2022-07-29T19:01:38;7.80;;;2.70;;
59271;SDS011;45043;51.068;7.026;2022-07-29T19:04:38;5.20;;;2.90;;
59271;SDS011;45043;51.068;7.026;2022-07-29T19:07:39;7.77;;;3.57;;
59271;SDS011;45043;51.068;7.026;2022-07-29T19:10:39;5.67;;;3.17;;
59271;SDS011;45043;51.068;7.026;2022-07-29T19:13:41;4.97;;;3.17;;
59271;SDS011;45043;51.068;7.026;2022-07-29T19:16:41;7.63;;;3.10;;
59271;SDS011;45043;51.068;7.026;2022-07-29T19:19:41;3.93;;;2.50;;
59271;SDS011;45043;51.068;7.026;2022-07-29T19:22:42;9.03;;;3.43;;
59271;SDS011;45043;51.068;7.026;2022-07-29T19:25:42;6.63;;;3.30;;
59271;SDS011;45043;51.068;7.026;2022-07-29T19:28:43;4.97;;;2.97;;